メインページ
METAR-TAF:

METAR-TAF

空港 :

リガ国際空港

リガ, ラトビア

緯度: 56-55N, 経度: 023-58E, 海抜: 10m

現時点の気象観測

当レポートは15分前の18:50(UTC)に作成
西/南西の風 3kt、南/南西から西の間で変化する
気温 -2°C
湿度 100%
気圧 1016 hPa
視程10km以上
高度200ftの曇り
(弱い) 着氷性, 雨

METAR: EVRA 111850Z 24003KT 210V270 9999 -FZRA OVC002 M02/M02 Q1016 R18/320195 NOSIG

時間: 21:05 (19:05 UTC)

予報

当レポートは1時間49分前の17:16(UTC)に作成
予報は11日の 18時(UTC)から 12日の 18時(UTC)まで有効
変向風 2kt
視程: 3000m
高度200ftの曇り
11日の 18時(UTC)から 11日の 22時(UTC)まで一時的に
視程: 0600m
高度100ftの曇り
着氷性の霧, (弱い) 着氷性, 霧雨
11日の 22時(UTC)から 11日の 24時(UTC)まで徐々に
視程: 7000m
高度500ftの曇り
12日の 00時(UTC)から 12日の 12時(UTC)まで一時的に
視程: 4000m
高度200ftの千切れ雲あり

TAF: EVRA 111716Z 1118/1218 VRB02KT 3000 BR OVC002 TEMPO 1118/1122 0600 FZFG -FZDZ OVC001 BECMG 1122/1124 7000 NSW OVC005 TEMPO 1200/1212 4000 BR BKN002

4,000以上の空港の気象観測と天気予報(METAR報とTAF報)

利用可能な観測所は地図上に黄色い丸と赤い丸で示す。

丸の上にカーソルを重ねると観測所名を参照できる。

次にクリックすると気象観測と天気予報を参照できる。

マップの切り替え:黒色「×」印の緑ボタンをクリックして拡大、「-」印の緑ボタンをクリックして縮小、緑色の三角印をクリックして隣りの地図に切り替え


METAR-TAF: